Time;durP1;ratioP1;P1;durP2;ratioP2;P2;SDS_P1;SDS_P2;PMS_P1;PMS_P2;Temp;Humidity;BMP_temperature;BMP_pressure;BME280_temperature;BME280_humidity;BME280_pressure;Samples;Min_cycle;Max_cycle;Signal;HPM_P1;HPM_P2
2024/01/17 11:59:06;;;;;;;6.55;3.22;;;;;;;2.60;100.00;93984.31;2103250;27;21085;-57
2024/01/17 12:02:45;;;;;;;9.75;5.18;;;;;;;2.52;100.00;93953.84;2084441;28;20577;-59
2024/01/17 12:06:50;;;;;;;9.40;4.00;;;;;;;2.80;100.00;93977.25;2079779;27;20555;-59
2024/01/17 12:10:12;;;;;;;3.92;2.80;;;;;;;3.11;100.00;93965.97;2101916;27;20560;-58
2024/01/17 12:40:30;;;;;;;6.55;3.65;;;;;;;3.19;100.00;93921.72;2084179;28;20567;-60
2024/01/17 12:41:33;;;;;;;4.00;2.38;;;;;;;3.29;100.00;93912.50;2079531;28;20649;-61
2024/01/17 12:42:34;;;;;;;6.03;2.95;;;;;;;3.39;100.00;93908.44;2072101;28;20651;-60
2024/01/17 13:01:06;;;;;;;4.03;2.38;;;;;;;3.41;100.00;93836.13;2083556;28;20682;-57
2024/01/17 13:02:14;;;;;;;4.10;2.47;;;;;;;3.65;100.00;93838.94;2076197;28;20255;-59
2024/01/17 13:03:18;;;;;;;3.35;2.05;;;;;;;3.74;100.00;93843.50;2071181;28;21065;-59
2024/01/17 13:04:20;;;;;;;6.35;2.75;;;;;;;3.71;100.00;93854.03;2070663;28;20233;-59
2024/01/17 13:05:23;;;;;;;4.18;1.95;;;;;;;3.75;100.00;93845.16;2069979;28;20209;-59
2024/01/17 13:06:25;;;;;;;3.83;2.58;;;;;;;3.81;100.00;93841.41;2072373;28;20219;-59
2024/01/17 13:07:27;;;;;;;2.63;2.05;;;;;;;3.68;100.00;93828.44;2068279;28;20368;-60
2024/01/17 13:08:29;;;;;;;4.72;2.53;;;;;;;3.74;100.00;93837.53;2070430;28;20198;-59
2024/01/17 13:09:32;;;;;;;4.80;2.45;;;;;;;3.84;100.00;93838.59;2073241;28;20247;-59
2024/01/17 13:10:35;;;;;;;3.65;1.90;;;;;;;4.04;100.00;93839.94;2071610;28;20448;-59
2024/01/17 13:11:36;;;;;;;6.00;2.47;;;;;;;3.95;100.00;93821.59;2070544;28;20301;-60
2024/01/17 13:12:38;;;;;;;6.78;2.88;;;;;;;4.17;100.00;93826.25;2073725;28;20233;-60
2024/01/17 13:13:39;;;;;;;3.75;2.42;;;;;;;4.18;100.00;93831.28;2079825;28;20193;-59
2024/01/17 13:14:41;;;;;;;4.63;2.13;;;;;;;4.29;100.00;93827.19;2073178;28;20197;-60
2024/01/17 13:15:48;;;;;;;4.07;2.03;;;;;;;4.65;100.00;93834.28;2065407;28;20248;-60
2024/01/17 13:16:50;;;;;;;3.80;2.10;;;;;;;4.78;100.00;93825.72;2067532;28;20193;-60
2024/01/17 13:17:53;;;;;;;3.30;1.77;;;;;;;4.83;100.00;93827.06;2068596;28;20229;-60
2024/01/17 13:18:58;;;;;;;14.10;7.85;;;;;;;4.90;100.00;93822.31;2073278;28;20205;-60
2024/01/17 13:20:00;;;;;;;2.90;1.85;;;;;;;4.95;100.00;93822.84;2071129;28;20206;-60
2024/01/17 13:21:17;;;;;;;3.80;2.22;;;;;;;5.10;100.00;93817.56;2071986;28;20228;-60
2024/01/17 13:22:22;;;;;;;3.15;1.85;;;;;;;5.27;100.00;93829.31;2079891;28;20655;-60
2024/01/17 13:23:23;;;;;;;6.20;2.03;;;;;;;5.17;100.00;93816.22;2079021;28;20741;-60
2024/01/17 13:24:25;;;;;;;3.47;1.70;;;;;;;5.33;100.00;93813.38;2078590;28;20192;-60
2024/01/17 13:25:27;;;;;;;4.07;1.83;;;;;;;5.19;100.00;93806.56;2082455;28;21068;-60
2024/01/17 13:26:30;;;;;;;3.67;1.60;;;;;;;5.23;100.00;93803.66;2074446;28;20205;-60
2024/01/17 13:27:32;;;;;;;4.68;2.10;;;;;;;5.38;100.00;93811.28;2069405;28;20232;-60
2024/01/17 13:28:33;;;;;;;2.17;1.45;;;;;;;5.57;100.00;93810.84;2067452;28;20199;-60
2024/01/17 13:29:35;;;;;;;2.58;1.80;;;;;;;5.23;100.00;93795.91;2070830;28;20289;-60
2024/01/17 13:30:37;;;;;;;4.75;1.30;;;;;;;5.48;100.00;93790.78;2070155;28;20282;-60
2024/01/17 13:31:40;;;;;;;3.05;1.70;;;;;;;5.65;100.00;93790.44;2067271;28;20240;-60
2024/01/17 13:32:42;;;;;;;2.42;1.58;;;;;;;6.04;99.65;93801.50;2070649;28;20197;-60
2024/01/17 13:33:44;;;;;;;3.42;1.73;;;;;;;6.11;98.96;93803.66;2070439;28;20893;-60
2024/01/17 13:34:46;;;;;;;4.22;2.03;;;;;;;6.09;98.95;93801.16;2071159;28;20195;-60
2024/01/17 13:35:50;;;;;;;2.50;1.45;;;;;;;5.94;99.04;93787.53;2069341;28;20209;-60
2024/01/17 13:36:52;;;;;;;4.55;2.55;;;;;;;5.97;99.39;93789.88;2070462;28;20205;-61
2024/01/17 13:37:54;;;;;;;6.07;2.00;;;;;;;5.57;100.00;93779.78;2071354;28;20232;-60
2024/01/17 13:38:56;;;;;;;5.95;1.90;;;;;;;5.56;100.00;93778.97;2082896;28;20204;-61
2024/01/17 13:39:58;;;;;;;2.65;1.60;;;;;;;5.23;100.00;93772.63;2079541;28;20202;-61
2024/01/17 13:41:00;;;;;;;3.45;1.70;;;;;;;5.42;100.00;93773.09;2072548;28;20237;-60
2024/01/17 13:42:03;;;;;;;4.00;2.10;;;;;;;5.22;100.00;93764.97;2071078;28;20213;-61
2024/01/17 13:43:04;;;;;;;8.15;2.45;;;;;;;5.26;100.00;93784.53;2073170;28;20288;-59
2024/01/17 13:44:07;;;;;;;19.83;6.35;;;;;;;5.23;100.00;93769.19;2071659;28;20198;-60
2024/01/17 13:45:13;;;;;;;3.88;2.00;;;;;;;5.41;100.00;93772.28;2072319;28;20253;-60
2024/01/17 13:46:15;;;;;;;4.18;2.22;;;;;;;5.45;100.00;93771.13;2072910;28;20633;-61
2024/01/17 13:47:17;;;;;;;2.53;1.92;;;;;;;5.50;100.00;93763.03;2058119;28;20230;-60
2024/01/17 13:48:19;;;;;;;4.63;2.17;;;;;;;5.39;100.00;93764.59;2072212;28;20208;-61
2024/01/17 13:49:24;;;;;;;3.30;2.00;;;;;;;5.46;100.00;93759.00;2071688;28;20201;-60
2024/01/17 13:50:27;;;;;;;3.28;2.08;;;;;;;5.33;100.00;93754.72;2071026;28;20213;-60
2024/01/17 13:51:31;;;;;;;4.35;2.40;;;;;;;5.43;100.00;93760.03;2074388;28;20198;-60
2024/01/17 13:52:36;;;;;;;4.70;1.67;;;;;;;5.42;100.00;93765.34;2071923;28;20244;-60
2024/01/17 13:53:42;;;;;;;3.75;2.13;;;;;;;5.31;100.00;93761.75;2062721;28;20241;-61
2024/01/17 13:54:44;;;;;;;3.90;2.65;;;;;;;5.04;100.00;93767.91;2072927;28;20315;-61
2024/01/17 13:55:46;;;;;;;6.63;2.90;;;;;;;5.06;100.00;93762.59;2073069;28;20284;-65
2024/01/17 13:56:48;;;;;;;4.90;2.58;;;;;;;5.05;100.00;93761.78;2068751;28;20617;-65
2024/01/17 13:57:50;;;;;;;4.97;2.45;;;;;;;5.16;100.00;93776.56;2070569;28;20205;-65
2024/01/17 13:58:52;;;;;;;6.20;3.30;;;;;;;5.09;100.00;93775.31;2069816;28;20553;-65
2024/01/17 13:59:53;;;;;;;4.30;2.30;;;;;;;5.03;100.00;93775.78;2071153;28;20624;-65
2024/01/17 14:00:59;;;;;;;4.03;2.22;;;;;;;4.94;100.00;93773.78;2072038;28;20244;-65
2024/01/17 14:02:02;;;;;;;3.80;2.65;;;;;;;5.04;100.00;93778.25;2063746;28;20218;-65
2024/01/17 14:03:04;;;;;;;5.38;2.20;;;;;;;5.14;100.00;93775.00;2067894;28;20195;-65
2024/01/17 14:04:05;;;;;;;4.32;2.13;;;;;;;5.18;100.00;93779.03;2067688;28;20255;-65
2024/01/17 14:05:07;;;;;;;8.02;3.38;;;;;;;5.26;100.00;93762.97;2067388;28;20198;-65
2024/01/17 14:06:08;;;;;;;7.07;2.92;;;;;;;5.30;100.00;93765.25;2074158;28;20197;-65
2024/01/17 14:07:10;;;;;;;6.07;2.22;;;;;;;5.17;100.00;93764.47;2070073;28;20221;-65
2024/01/17 14:08:12;;;;;;;3.58;2.25;;;;;;;5.17;100.00;93774.81;2069622;28;20288;-65
2024/01/17 14:09:14;;;;;;;6.20;3.28;;;;;;;4.91;100.00;93772.25;2069978;28;20200;-65
2024/01/17 14:10:18;;;;;;;7.10;2.55;;;;;;;4.96;100.00;93764.19;2078909;28;20237;-65
2024/01/17 14:11:20;;;;;;;5.53;3.13;;;;;;;4.74;100.00;93770.81;2076148;28;20189;-65
2024/01/17 14:12:21;;;;;;;3.92;2.35;;;;;;;4.85;100.00;93772.66;2063166;28;20234;-65
2024/01/17 14:13:23;;;;;;;4.18;2.65;;;;;;;4.86;100.00;93759.66;2062945;28;20209;-65
2024/01/17 14:14:25;;;;;;;3.35;2.05;;;;;;;5.03;100.00;93758.47;2070821;28;20225;-64
2024/01/17 14:15:26;;;;;;;5.22;2.30;;;;;;;5.00;100.00;93750.94;2067707;28;20630;-65
2024/01/17 14:16:28;;;;;;;4.13;2.50;;;;;;;5.10;100.00;93763.22;2066962;28;20196;-64
2024/01/17 14:17:33;;;;;;;12.32;2.50;;;;;;;5.15;100.00;93743.84;2066924;28;20806;-61
2024/01/17 14:18:34;;;;;;;4.55;2.65;;;;;;;4.86;100.00;93740.69;2067402;28;20206;-61
2024/01/17 14:19:36;;;;;;;5.18;2.80;;;;;;;4.97;100.00;93737.38;2065449;28;20202;-61
2024/01/17 14:20:38;;;;;;;4.25;2.67;;;;;;;4.81;100.00;93715.19;2064811;28;20322;-61
2024/01/17 14:21:41;;;;;;;5.63;3.38;;;;;;;4.82;100.00;93706.47;2062090;28;20863;-59
2024/01/17 14:24:56;;;;;;;5.32;2.65;;;;;;;4.92;100.00;93721.38;2083753;28;20579;-60
2024/01/17 14:25:57;;;;;;;5.22;2.70;;;;;;;4.96;100.00;93713.28;2076790;28;20205;-59
2024/01/17 14:30:11;;;;;;;6.68;2.85;;;;;;;5.15;100.00;93693.88;2082132;28;20565;-61
2024/01/17 14:31:14;;;;;;;12.18;3.20;;;;;;;5.21;100.00;93707.22;2079523;28;20197;-60
2024/01/17 14:32:16;;;;;;;5.53;3.15;;;;;;;5.28;100.00;93707.63;2051102;28;20748;-61
2024/01/17 14:33:20;;;;;;;8.02;2.50;;;;;;;5.45;100.00;93711.59;2063033;28;20198;-61
2024/01/17 14:34:25;;;;;;;7.30;2.40;;;;;;;5.66;100.00;93696.28;2063682;28;20202;-61
2024/01/17 14:35:28;;;;;;;5.13;2.80;;;;;;;5.79;100.00;93701.41;2062583;28;20202;-61
2024/01/17 14:36:30;;;;;;;8.43;3.10;;;;;;;5.87;100.00;93700.84;2062254;28;20648;-61
2024/01/17 14:37:31;;;;;;;6.22;2.67;;;;;;;5.98;100.00;93692.28;2069754;28;20238;-61
2024/01/17 14:38:33;;;;;;;6.03;2.80;;;;;;;6.08;100.00;93701.03;2070172;28;20213;-61
2024/01/17 14:39:35;;;;;;;4.15;2.30;;;;;;;6.11;100.00;93685.28;2070822;28;20194;-61
2024/01/17 14:40:36;;;;;;;5.13;2.63;;;;;;;6.16;100.00;93679.78;2072450;28;20299;-59
2024/01/17 14:41:38;;;;;;;4.85;2.95;;;;;;;6.25;100.00;93678.25;2070623;28;20206;-60
2024/01/17 14:42:39;;;;;;;4.18;2.55;;;;;;;6.28;100.00;93680.63;2064040;28;20225;-61
2024/01/17 14:43:41;;;;;;;5.25;2.10;;;;;;;6.28;100.00;93680.63;2070458;28;20198;-60
2024/01/17 14:44:42;;;;;;;3.88;2.25;;;;;;;6.29;100.00;93675.31;2072268;28;20197;-59
2024/01/17 14:45:44;;;;;;;5.45;2.88;;;;;;;6.21;100.00;93686.25;2070720;28;20300;-59
2024/01/17 14:46:46;;;;;;;5.05;2.67;;;;;;;6.12;100.00;93680.91;2072141;28;20243;-58
2024/01/17 14:47:52;;;;;;;6.78;2.72;;;;;;;5.95;100.00;93675.19;2070177;28;20209;-60
2024/01/17 14:48:53;;;;;;;4.50;2.50;;;;;;;5.83;100.00;93663.97;2069247;28;20762;-59
2024/01/17 14:49:55;;;;;;;9.63;2.85;;;;;;;5.75;100.00;93676.66;2071894;28;20213;-60
2024/01/17 14:50:57;;;;;;;9.60;3.03;;;;;;;5.65;100.00;93693.78;2071087;28;20198;-60
2024/01/17 14:58:57;;;;;;;7.18;2.95;;;;;;;5.34;100.00;93725.28;2107605;27;20580;-64
2024/01/17 14:59:58;;;;;;;7.68;3.45;;;;;;;5.32;100.00;93716.81;2109037;28;20837;-64
2024/01/17 15:01:00;;;;;;;7.30;3.55;;;;;;;5.34;100.00;93717.53;2107649;28;20905;-64
2024/01/17 15:06:21;;;;;;;9.48;2.67;;;;;;;5.40;100.00;93703.34;2101046;27;20553;-59
2024/01/17 15:07:23;;;;;;;8.05;3.72;;;;;;;5.38;100.00;93700.00;2090917;28;20230;-60
2024/01/17 15:13:39;;;;;;;5.40;3.35;;;;;;;5.28;100.00;93665.38;2090775;28;20904;-60
2024/01/17 15:14:42;;;;;;;9.90;3.90;;;;;;;5.34;100.00;93662.38;2089415;28;20538;-61
2024/01/17 15:22:39;;;;;;;9.05;4.22;;;;;;;5.13;100.00;93706.09;2082813;27;20581;-64
